sensor_id;sensor_type;location;lat;lon;timestamp;P1;durP1;ratioP1;P2;durP2;ratioP2
35917;SDS011;22011;59.912;30.300;2023-08-24T00:02:26;7.30;;;5.45;;
35917;SDS011;22011;59.912;30.300;2023-08-24T00:04:55;9.98;;;5.95;;
35917;SDS011;22011;59.912;30.300;2023-08-24T00:07:22;9.95;;;6.82;;
35917;SDS011;22011;59.912;30.300;2023-08-24T00:09:52;11.30;;;6.45;;
35917;SDS011;22011;59.912;30.300;2023-08-24T00:12:19;11.27;;;6.93;;
35917;SDS011;22011;59.912;30.300;2023-08-24T00:14:47;10.82;;;6.55;;
35917;SDS011;22011;59.912;30.300;2023-08-24T00:17:15;10.57;;;6.97;;
35917;SDS011;22011;59.912;30.300;2023-08-24T00:19:42;11.55;;;6.20;;
35917;SDS011;22011;59.912;30.300;2023-08-24T00:22:11;12.48;;;6.60;;
35917;SDS011;22011;59.912;30.300;2023-08-24T00:24:39;11.90;;;6.10;;
35917;SDS011;22011;59.912;30.300;2023-08-24T00:27:07;9.60;;;6.03;;
35917;SDS011;22011;59.912;30.300;2023-08-24T00:29:34;11.40;;;6.53;;
35917;SDS011;22011;59.912;30.300;2023-08-24T00:32:02;13.20;;;6.50;;
35917;SDS011;22011;59.912;30.300;2023-08-24T00:34:30;8.20;;;5.82;;
35917;SDS011;22011;59.912;30.300;2023-08-24T00:36:57;13.57;;;6.55;;
35917;SDS011;22011;59.912;30.300;2023-08-24T00:39:26;12.43;;;6.57;;
35917;SDS011;22011;59.912;30.300;2023-08-24T00:41:54;9.27;;;6.40;;
35917;SDS011;22011;59.912;30.300;2023-08-24T00:44:22;12.85;;;6.60;;
35917;SDS011;22011;59.912;30.300;2023-08-24T00:46:49;8.25;;;5.95;;
35917;SDS011;22011;59.912;30.300;2023-08-24T00:49:17;8.32;;;5.72;;
35917;SDS011;22011;59.912;30.300;2023-08-24T00:51:46;12.93;;;6.03;;
35917;SDS011;22011;59.912;30.300;2023-08-24T00:54:13;13.02;;;5.88;;
35917;SDS011;22011;59.912;30.300;2023-08-24T00:56:43;12.15;;;6.38;;
35917;SDS011;22011;59.912;30.300;2023-08-24T00:59:11;9.97;;;5.93;;
35917;SDS011;22011;59.912;30.300;2023-08-24T01:01:39;12.52;;;6.60;;
35917;SDS011;22011;59.912;30.300;2023-08-24T01:04:12;8.68;;;5.60;;
35917;SDS011;22011;59.912;30.300;2023-08-24T01:06:40;8.35;;;5.70;;
35917;SDS011;22011;59.912;30.300;2023-08-24T01:09:07;7.90;;;5.22;;
35917;SDS011;22011;59.912;30.300;2023-08-24T01:11:38;8.95;;;5.45;;
35917;SDS011;22011;59.912;30.300;2023-08-24T01:14:20;10.60;;;5.70;;
35917;SDS011;22011;59.912;30.300;2023-08-24T01:16:50;10.15;;;5.78;;
35917;SDS011;22011;59.912;30.300;2023-08-24T01:19:33;7.25;;;4.88;;
35917;SDS011;22011;59.912;30.300;2023-08-24T01:22:05;11.57;;;5.13;;
35917;SDS011;22011;59.912;30.300;2023-08-24T01:24:44;6.60;;;4.72;;
35917;SDS011;22011;59.912;30.300;2023-08-24T01:27:16;8.35;;;4.47;;
35917;SDS011;22011;59.912;30.300;2023-08-24T01:29:45;6.53;;;4.30;;
35917;SDS011;22011;59.912;30.300;2023-08-24T01:32:12;8.63;;;4.30;;
35917;SDS011;22011;59.912;30.300;2023-08-24T01:34:40;8.07;;;4.00;;
35917;SDS011;22011;59.912;30.300;2023-08-24T01:37:08;7.80;;;3.70;;
35917;SDS011;22011;59.912;30.300;2023-08-24T01:39:40;5.85;;;4.40;;
35917;SDS011;22011;59.912;30.300;2023-08-24T01:42:13;7.65;;;4.07;;
35917;SDS011;22011;59.912;30.300;2023-08-24T01:44:46;7.70;;;3.72;;
35917;SDS011;22011;59.912;30.300;2023-08-24T01:47:18;7.57;;;4.05;;
35917;SDS011;22011;59.912;30.300;2023-08-24T01:49:47;5.65;;;3.50;;
35917;SDS011;22011;59.912;30.300;2023-08-24T01:52:15;11.68;;;4.13;;
35917;SDS011;22011;59.912;30.300;2023-08-24T01:54:44;5.40;;;3.67;;
35917;SDS011;22011;59.912;30.300;2023-08-24T01:57:12;5.22;;;3.55;;
35917;SDS011;22011;59.912;30.300;2023-08-24T01:59:41;6.32;;;3.92;;
35917;SDS011;22011;59.912;30.300;2023-08-24T02:02:09;6.90;;;3.90;;
35917;SDS011;22011;59.912;30.300;2023-08-24T02:04:36;11.50;;;4.25;;
35917;SDS011;22011;59.912;30.300;2023-08-24T02:07:04;9.18;;;4.10;;
35917;SDS011;22011;59.912;30.300;2023-08-24T02:09:32;7.35;;;4.32;;
35917;SDS011;22011;59.912;30.300;2023-08-24T02:11:59;5.40;;;3.85;;
35917;SDS011;22011;59.912;30.300;2023-08-24T02:14:27;7.28;;;3.88;;
35917;SDS011;22011;59.912;30.300;2023-08-24T02:16:57;5.72;;;3.88;;
35917;SDS011;22011;59.912;30.300;2023-08-24T02:19:25;6.65;;;4.47;;
35917;SDS011;22011;59.912;30.300;2023-08-24T02:21:53;6.95;;;4.38;;
35917;SDS011;22011;59.912;30.300;2023-08-24T02:24:22;7.88;;;4.68;;
35917;SDS011;22011;59.912;30.300;2023-08-24T02:26:49;6.88;;;4.53;;
35917;SDS011;22011;59.912;30.300;2023-08-24T02:29:17;6.93;;;4.60;;
35917;SDS011;22011;59.912;30.300;2023-08-24T02:31:45;9.25;;;4.63;;
35917;SDS011;22011;59.912;30.300;2023-08-24T02:34:15;9.75;;;4.22;;
35917;SDS011;22011;59.912;30.300;2023-08-24T02:36:42;7.72;;;4.65;;
35917;SDS011;22011;59.912;30.300;2023-08-24T02:39:10;7.40;;;4.60;;
35917;SDS011;22011;59.912;30.300;2023-08-24T02:41:39;8.32;;;4.25;;
35917;SDS011;22011;59.912;30.300;2023-08-24T02:44:06;7.85;;;4.00;;
35917;SDS011;22011;59.912;30.300;2023-08-24T02:46:34;4.97;;;3.20;;
35917;SDS011;22011;59.912;30.300;2023-08-24T02:49:02;7.30;;;3.33;;
35917;SDS011;22011;59.912;30.300;2023-08-24T02:51:31;8.23;;;3.67;;
35917;SDS011;22011;59.912;30.300;2023-08-24T02:53:59;8.23;;;4.35;;
35917;SDS011;22011;59.912;30.300;2023-08-24T02:56:26;7.45;;;5.00;;
35917;SDS011;22011;59.912;30.300;2023-08-24T02:58:54;14.18;;;8.07;;
35917;SDS011;22011;59.912;30.300;2023-08-24T03:01:21;7.72;;;4.78;;
35917;SDS011;22011;59.912;30.300;2023-08-24T03:03:49;9.55;;;5.68;;
35917;SDS011;22011;59.912;30.300;2023-08-24T03:06:17;6.95;;;4.40;;
35917;SDS011;22011;59.912;30.300;2023-08-24T03:08:46;7.65;;;4.10;;
35917;SDS011;22011;59.912;30.300;2023-08-24T03:11:13;5.65;;;3.15;;
35917;SDS011;22011;59.912;30.300;2023-08-24T03:13:41;7.60;;;3.38;;
35917;SDS011;22011;59.912;30.300;2023-08-24T03:16:09;5.07;;;3.40;;
35917;SDS011;22011;59.912;30.300;2023-08-24T03:18:37;7.18;;;2.88;;
35917;SDS011;22011;59.912;30.300;2023-08-24T03:21:05;4.72;;;2.88;;
35917;SDS011;22011;59.912;30.300;2023-08-24T03:23:34;5.70;;;3.53;;
35917;SDS011;22011;59.912;30.300;2023-08-24T03:26:03;6.22;;;3.05;;
35917;SDS011;22011;59.912;30.300;2023-08-24T03:28:31;5.95;;;3.40;;
35917;SDS011;22011;59.912;30.300;2023-08-24T03:31:00;7.60;;;3.63;;
35917;SDS011;22011;59.912;30.300;2023-08-24T03:33:28;6.82;;;3.80;;
35917;SDS011;22011;59.912;30.300;2023-08-24T03:35:56;12.10;;;3.92;;
35917;SDS011;22011;59.912;30.300;2023-08-24T03:38:24;7.25;;;3.83;;
35917;SDS011;22011;59.912;30.300;2023-08-24T03:40:59;10.05;;;3.65;;
35917;SDS011;22011;59.912;30.300;2023-08-24T03:43:28;6.20;;;3.63;;
35917;SDS011;22011;59.912;30.300;2023-08-24T03:45:56;9.32;;;4.03;;
35917;SDS011;22011;59.912;30.300;2023-08-24T03:48:24;10.50;;;4.35;;
35917;SDS011;22011;59.912;30.300;2023-08-24T03:50:53;8.25;;;5.03;;
35917;SDS011;22011;59.912;30.300;2023-08-24T03:53:21;10.68;;;6.78;;
35917;SDS011;22011;59.912;30.300;2023-08-24T03:55:49;15.73;;;7.00;;
35917;SDS011;22011;59.912;30.300;2023-08-24T03:58:19;14.52;;;8.38;;
35917;SDS011;22011;59.912;30.300;2023-08-24T04:00:49;12.35;;;7.38;;
35917;SDS011;22011;59.912;30.300;2023-08-24T04:03:16;12.38;;;8.15;;
35917;SDS011;22011;59.912;30.300;2023-08-24T04:05:44;15.05;;;8.45;;
35917;SDS011;22011;59.912;30.300;2023-08-24T04:08:11;18.85;;;10.50;;
35917;SDS011;22011;59.912;30.300;2023-08-24T04:10:39;20.33;;;11.73;;
35917;SDS011;22011;59.912;30.300;2023-08-24T04:13:07;16.92;;;10.35;;
35917;SDS011;22011;59.912;30.300;2023-08-24T04:15:36;13.07;;;8.82;;
35917;SDS011;22011;59.912;30.300;2023-08-24T04:18:05;14.07;;;7.70;;
35917;SDS011;22011;59.912;30.300;2023-08-24T04:20:33;8.80;;;5.40;;
35917;SDS011;22011;59.912;30.300;2023-08-24T04:23:01;10.27;;;5.40;;
35917;SDS011;22011;59.912;30.300;2023-08-24T04:25:29;11.85;;;4.38;;
35917;SDS011;22011;59.912;30.300;2023-08-24T04:27:56;5.72;;;3.08;;
35917;SDS011;22011;59.912;30.300;2023-08-24T04:30:24;3.47;;;2.35;;
35917;SDS011;22011;59.912;30.300;2023-08-24T04:32:52;6.78;;;2.60;;
35917;SDS011;22011;59.912;30.300;2023-08-24T04:35:21;5.32;;;2.58;;
35917;SDS011;22011;59.912;30.300;2023-08-24T04:37:48;4.28;;;2.63;;
35917;SDS011;22011;59.912;30.300;2023-08-24T04:40:16;3.20;;;2.10;;
35917;SDS011;22011;59.912;30.300;2023-08-24T04:42:43;6.00;;;2.08;;
35917;SDS011;22011;59.912;30.300;2023-08-24T04:45:11;6.70;;;2.53;;
35917;SDS011;22011;59.912;30.300;2023-08-24T04:47:40;6.38;;;2.60;;
35917;SDS011;22011;59.912;30.300;2023-08-24T04:50:08;4.57;;;2.60;;
35917;SDS011;22011;59.912;30.300;2023-08-24T04:52:38;4.95;;;2.80;;
35917;SDS011;22011;59.912;30.300;2023-08-24T04:55:05;6.88;;;2.97;;
35917;SDS011;22011;59.912;30.300;2023-08-24T04:57:34;6.70;;;3.08;;
35917;SDS011;22011;59.912;30.300;2023-08-24T05:00:02;6.72;;;2.80;;
35917;SDS011;22011;59.912;30.300;2023-08-24T05:02:31;4.45;;;2.63;;
35917;SDS011;22011;59.912;30.300;2023-08-24T05:04:58;10.48;;;3.08;;
35917;SDS011;22011;59.912;30.300;2023-08-24T05:07:26;5.05;;;2.58;;
35917;SDS011;22011;59.912;30.300;2023-08-24T05:09:55;6.80;;;2.92;;
35917;SDS011;22011;59.912;30.300;2023-08-24T05:12:23;5.30;;;2.90;;
35917;SDS011;22011;59.912;30.300;2023-08-24T05:14:50;4.28;;;2.47;;
35917;SDS011;22011;59.912;30.300;2023-08-24T05:17:18;7.88;;;2.65;;
35917;SDS011;22011;59.912;30.300;2023-08-24T05:19:50;6.57;;;2.97;;
35917;SDS011;22011;59.912;30.300;2023-08-24T05:22:19;6.78;;;2.53;;
35917;SDS011;22011;59.912;30.300;2023-08-24T05:24:47;7.05;;;2.50;;
35917;SDS011;22011;59.912;30.300;2023-08-24T05:27:16;3.75;;;2.33;;
35917;SDS011;22011;59.912;30.300;2023-08-24T05:29:43;7.88;;;3.10;;
35917;SDS011;22011;59.912;30.300;2023-08-24T05:32:11;5.88;;;2.95;;
35917;SDS011;22011;59.912;30.300;2023-08-24T05:34:38;10.07;;;3.70;;
35917;SDS011;22011;59.912;30.300;2023-08-24T05:37:06;6.15;;;2.90;;
35917;SDS011;22011;59.912;30.300;2023-08-24T05:39:33;15.32;;;3.08;;
35917;SDS011;22011;59.912;30.300;2023-08-24T05:42:01;14.57;;;3.70;;
35917;SDS011;22011;59.912;30.300;2023-08-24T05:44:30;5.35;;;2.65;;
35917;SDS011;22011;59.912;30.300;2023-08-24T05:46:58;10.38;;;3.53;;
35917;SDS011;22011;59.912;30.300;2023-08-24T05:49:26;8.55;;;3.92;;
35917;SDS011;22011;59.912;30.300;2023-08-24T05:51:54;10.35;;;3.42;;
35917;SDS011;22011;59.912;30.300;2023-08-24T05:54:21;14.90;;;4.30;;
35917;SDS011;22011;59.912;30.300;2023-08-24T05:56:49;7.57;;;2.88;;
35917;SDS011;22011;59.912;30.300;2023-08-24T05:59:17;9.50;;;2.83;;
35917;SDS011;22011;59.912;30.300;2023-08-24T06:01:45;10.95;;;3.03;;
35917;SDS011;22011;59.912;30.300;2023-08-24T06:04:13;7.43;;;3.45;;
35917;SDS011;22011;59.912;30.300;2023-08-24T06:06:41;8.73;;;3.83;;
35917;SDS011;22011;59.912;30.300;2023-08-24T06:09:08;7.22;;;4.00;;
35917;SDS011;22011;59.912;30.300;2023-08-24T06:11:36;13.02;;;4.07;;
35917;SDS011;22011;59.912;30.300;2023-08-24T06:14:04;14.80;;;4.85;;
35917;SDS011;22011;59.912;30.300;2023-08-24T06:16:31;14.20;;;4.95;;
35917;SDS011;22011;59.912;30.300;2023-08-24T06:19:01;14.98;;;3.95;;
35917;SDS011;22011;59.912;30.300;2023-08-24T06:21:29;8.43;;;2.97;;
35917;SDS011;22011;59.912;30.300;2023-08-24T06:23:56;10.20;;;3.50;;
35917;SDS011;22011;59.912;30.300;2023-08-24T06:26:24;10.10;;;3.50;;
35917;SDS011;22011;59.912;30.300;2023-08-24T06:28:51;17.00;;;3.63;;
35917;SDS011;22011;59.912;30.300;2023-08-24T06:31:21;14.53;;;3.93;;
35917;SDS011;22011;59.912;30.300;2023-08-24T06:33:49;11.20;;;3.85;;
35917;SDS011;22011;59.912;30.300;2023-08-24T06:36:18;7.35;;;4.43;;
35917;SDS011;22011;59.912;30.300;2023-08-24T06:38:46;14.20;;;5.88;;
35917;SDS011;22011;59.912;30.300;2023-08-24T06:41:13;14.85;;;5.32;;
35917;SDS011;22011;59.912;30.300;2023-08-24T06:43:41;12.30;;;5.47;;
35917;SDS011;22011;59.912;30.300;2023-08-24T06:46:08;7.18;;;4.15;;
35917;SDS011;22011;59.912;30.300;2023-08-24T06:48:36;4.90;;;3.33;;
35917;SDS011;22011;59.912;30.300;2023-08-24T06:51:04;11.43;;;3.50;;
35917;SDS011;22011;59.912;30.300;2023-08-24T06:53:33;11.85;;;3.40;;
35917;SDS011;22011;59.912;30.300;2023-08-24T06:56:01;7.43;;;3.10;;
35917;SDS011;22011;59.912;30.300;2023-08-24T06:58:29;6.97;;;3.00;;
35917;SDS011;22011;59.912;30.300;2023-08-24T07:00:57;5.38;;;2.67;;
35917;SDS011;22011;59.912;30.300;2023-08-24T07:03:24;8.32;;;3.38;;
35917;SDS011;22011;59.912;30.300;2023-08-24T07:05:52;7.03;;;4.18;;
35917;SDS011;22011;59.912;30.300;2023-08-24T07:08:20;8.52;;;3.20;;
35917;SDS011;22011;59.912;30.300;2023-08-24T07:10:49;8.85;;;3.58;;
35917;SDS011;22011;59.912;30.300;2023-08-24T07:13:20;8.52;;;4.10;;
35917;SDS011;22011;59.912;30.300;2023-08-24T07:15:48;9.93;;;3.17;;
35917;SDS011;22011;59.912;30.300;2023-08-24T07:18:16;5.65;;;3.38;;
35917;SDS011;22011;59.912;30.300;2023-08-24T07:20:44;10.10;;;2.88;;
35917;SDS011;22011;59.912;30.300;2023-08-24T07:23:12;14.45;;;3.67;;
35917;SDS011;22011;59.912;30.300;2023-08-24T07:25:39;5.93;;;2.97;;
35917;SDS011;22011;59.912;30.300;2023-08-24T07:28:09;4.65;;;2.30;;
35917;SDS011;22011;59.912;30.300;2023-08-24T07:30:37;6.20;;;2.72;;
35917;SDS011;22011;59.912;30.300;2023-08-24T07:33:04;10.00;;;3.13;;
35917;SDS011;22011;59.912;30.300;2023-08-24T07:35:32;10.65;;;2.78;;
35917;SDS011;22011;59.912;30.300;2023-08-24T07:38:00;7.93;;;2.60;;
35917;SDS011;22011;59.912;30.300;2023-08-24T07:42:57;15.98;;;2.90;;
35917;SDS011;22011;59.912;30.300;2023-08-24T07:45:26;7.03;;;2.90;;
35917;SDS011;22011;59.912;30.300;2023-08-24T07:47:54;3.20;;;2.15;;
35917;SDS011;22011;59.912;30.300;2023-08-24T07:50:22;8.48;;;2.63;;
35917;SDS011;22011;59.912;30.300;2023-08-24T07:52:49;14.32;;;2.72;;
35917;SDS011;22011;59.912;30.300;2023-08-24T07:55:17;16.58;;;3.72;;
35917;SDS011;22011;59.912;30.300;2023-08-24T07:57:44;6.20;;;2.60;;
35917;SDS011;22011;59.912;30.300;2023-08-24T08:00:14;5.55;;;2.80;;
35917;SDS011;22011;59.912;30.300;2023-08-24T08:02:43;4.70;;;3.15;;
35917;SDS011;22011;59.912;30.300;2023-08-24T08:05:11;4.72;;;2.67;;
35917;SDS011;22011;59.912;30.300;2023-08-24T08:07:39;6.43;;;2.90;;
35917;SDS011;22011;59.912;30.300;2023-08-24T08:10:07;6.13;;;2.33;;
35917;SDS011;22011;59.912;30.300;2023-08-24T08:12:35;4.82;;;2.60;;
35917;SDS011;22011;59.912;30.300;2023-08-24T08:15:03;6.28;;;3.00;;
35917;SDS011;22011;59.912;30.300;2023-08-24T08:17:31;13.05;;;3.45;;
35917;SDS011;22011;59.912;30.300;2023-08-24T08:20:01;5.88;;;3.05;;
35917;SDS011;22011;59.912;30.300;2023-08-24T08:22:29;10.00;;;2.78;;
35917;SDS011;22011;59.912;30.300;2023-08-24T08:25:01;4.45;;;2.85;;
35917;SDS011;22011;59.912;30.300;2023-08-24T08:27:30;4.20;;;2.25;;
35917;SDS011;22011;59.912;30.300;2023-08-24T08:29:58;5.32;;;2.63;;
35917;SDS011;22011;59.912;30.300;2023-08-24T08:32:26;8.15;;;2.45;;
35917;SDS011;22011;59.912;30.300;2023-08-24T08:34:54;5.32;;;1.90;;
35917;SDS011;22011;59.912;30.300;2023-08-24T08:37:24;4.00;;;2.30;;
35917;SDS011;22011;59.912;30.300;2023-08-24T08:39:51;4.57;;;2.50;;
35917;SDS011;22011;59.912;30.300;2023-08-24T08:42:19;3.55;;;2.00;;
35917;SDS011;22011;59.912;30.300;2023-08-24T08:44:46;8.32;;;2.90;;
35917;SDS011;22011;59.912;30.300;2023-08-24T08:47:15;6.80;;;2.22;;
35917;SDS011;22011;59.912;30.300;2023-08-24T08:49:44;6.13;;;2.13;;
35917;SDS011;22011;59.912;30.300;2023-08-24T08:52:14;5.45;;;2.60;;
35917;SDS011;22011;59.912;30.300;2023-08-24T08:54:43;7.93;;;2.60;;
35917;SDS011;22011;59.912;30.300;2023-08-24T08:57:11;6.20;;;2.87;;
35917;SDS011;22011;59.912;30.300;2023-08-24T08:59:40;6.32;;;2.25;;
35917;SDS011;22011;59.912;30.300;2023-08-24T09:02:08;4.22;;;1.88;;
35917;SDS011;22011;59.912;30.300;2023-08-24T09:04:42;6.18;;;2.33;;
35917;SDS011;22011;59.912;30.300;2023-08-24T09:07:12;6.97;;;2.38;;
35917;SDS011;22011;59.912;30.300;2023-08-24T09:09:40;4.95;;;2.38;;
35917;SDS011;22011;59.912;30.300;2023-08-24T09:12:10;6.38;;;2.30;;
35917;SDS011;22011;59.912;30.300;2023-08-24T09:14:37;5.88;;;2.50;;
35917;SDS011;22011;59.912;30.300;2023-08-24T09:17:05;7.88;;;4.38;;
35917;SDS011;22011;59.912;30.300;2023-08-24T09:19:34;13.52;;;3.47;;
35917;SDS011;22011;59.912;30.300;2023-08-24T09:22:04;6.68;;;3.20;;
35917;SDS011;22011;59.912;30.300;2023-08-24T09:24:32;10.10;;;2.72;;
35917;SDS011;22011;59.912;30.300;2023-08-24T09:27:04;5.20;;;2.20;;
35917;SDS011;22011;59.912;30.300;2023-08-24T09:29:47;6.57;;;2.60;;
35917;SDS011;22011;59.912;30.300;2023-08-24T09:32:21;4.07;;;2.30;;
35917;SDS011;22011;59.912;30.300;2023-08-24T09:34:49;6.40;;;2.17;;
35917;SDS011;22011;59.912;30.300;2023-08-24T09:37:17;7.32;;;2.72;;
35917;SDS011;22011;59.912;30.300;2023-08-24T09:39:45;4.57;;;2.53;;
35917;SDS011;22011;59.912;30.300;2023-08-24T09:42:13;5.43;;;2.35;;
35917;SDS011;22011;59.912;30.300;2023-08-24T09:44:51;4.28;;;2.10;;
35917;SDS011;22011;59.912;30.300;2023-08-24T09:47:19;6.47;;;1.88;;
35917;SDS011;22011;59.912;30.300;2023-08-24T09:49:46;3.55;;;2.10;;
35917;SDS011;22011;59.912;30.300;2023-08-24T09:52:15;6.78;;;2.42;;
35917;SDS011;22011;59.912;30.300;2023-08-24T09:54:43;4.43;;;2.50;;
35917;SDS011;22011;59.912;30.300;2023-08-24T09:57:12;5.35;;;2.33;;
35917;SDS011;22011;59.912;30.300;2023-08-24T09:59:42;5.15;;;2.70;;
35917;SDS011;22011;59.912;30.300;2023-08-24T10:02:14;7.22;;;2.40;;
35917;SDS011;22011;59.912;30.300;2023-08-24T10:04:43;5.60;;;2.45;;
35917;SDS011;22011;59.912;30.300;2023-08-24T10:07:13;5.95;;;2.95;;
35917;SDS011;22011;59.912;30.300;2023-08-24T10:09:49;5.65;;;2.45;;
35917;SDS011;22011;59.912;30.300;2023-08-24T10:12:24;4.95;;;2.35;;
35917;SDS011;22011;59.912;30.300;2023-08-24T10:14:59;5.13;;;2.22;;
35917;SDS011;22011;59.912;30.300;2023-08-24T10:17:28;6.78;;;2.40;;
35917;SDS011;22011;59.912;30.300;2023-08-24T10:19:56;11.32;;;2.08;;
35917;SDS011;22011;59.912;30.300;2023-08-24T10:22:27;4.75;;;2.55;;
35917;SDS011;22011;59.912;30.300;2023-08-24T10:24:55;6.90;;;1.87;;
35917;SDS011;22011;59.912;30.300;2023-08-24T10:27:24;4.22;;;2.40;;
35917;SDS011;22011;59.912;30.300;2023-08-24T10:29:54;11.10;;;2.42;;
35917;SDS011;22011;59.912;30.300;2023-08-24T10:32:23;6.80;;;2.10;;
35917;SDS011;22011;59.912;30.300;2023-08-24T10:34:52;5.22;;;2.03;;
35917;SDS011;22011;59.912;30.300;2023-08-24T10:37:24;5.40;;;1.92;;
35917;SDS011;22011;59.912;30.300;2023-08-24T10:39:52;5.25;;;2.03;;
35917;SDS011;22011;59.912;30.300;2023-08-24T10:42:20;5.97;;;2.45;;
35917;SDS011;22011;59.912;30.300;2023-08-24T10:44:48;6.57;;;1.90;;
35917;SDS011;22011;59.912;30.300;2023-08-24T10:47:18;4.35;;;2.30;;
35917;SDS011;22011;59.912;30.300;2023-08-24T10:49:59;4.10;;;2.00;;
35917;SDS011;22011;59.912;30.300;2023-08-24T10:52:30;2.10;;;1.90;;
35917;SDS011;22011;59.912;30.300;2023-08-24T10:55:00;3.83;;;2.13;;
35917;SDS011;22011;59.912;30.300;2023-08-24T10:57:34;5.57;;;2.15;;
35917;SDS011;22011;59.912;30.300;2023-08-24T11:00:03;10.77;;;2.55;;
35917;SDS011;22011;59.912;30.300;2023-08-24T11:02:42;4.35;;;2.03;;
35917;SDS011;22011;59.912;30.300;2023-08-24T11:05:16;4.20;;;2.08;;
35917;SDS011;22011;59.912;30.300;2023-08-24T11:07:48;2.25;;;1.70;;
35917;SDS011;22011;59.912;30.300;2023-08-24T11:10:17;4.00;;;1.90;;
35917;SDS011;22011;59.912;30.300;2023-08-24T11:15:33;8.40;;;2.42;;
35917;SDS011;22011;59.912;30.300;2023-08-24T11:18:22;3.72;;;1.95;;
35917;SDS011;22011;59.912;30.300;2023-08-24T11:20:54;3.28;;;2.08;;
35917;SDS011;22011;59.912;30.300;2023-08-24T11:23:26;6.38;;;2.03;;
35917;SDS011;22011;59.912;30.300;2023-08-24T11:25:54;2.65;;;1.98;;
35917;SDS011;22011;59.912;30.300;2023-08-24T11:28:25;3.35;;;1.88;;
35917;SDS011;22011;59.912;30.300;2023-08-24T11:30:54;4.38;;;2.20;;
35917;SDS011;22011;59.912;30.300;2023-08-24T11:33:29;5.85;;;1.92;;
35917;SDS011;22011;59.912;30.300;2023-08-24T11:35:59;7.25;;;2.40;;
35917;SDS011;22011;59.912;30.300;2023-08-24T11:41:14;8.65;;;2.70;;
35917;SDS011;22011;59.912;30.300;2023-08-24T11:43:42;7.18;;;1.98;;
35917;SDS011;22011;59.912;30.300;2023-08-24T11:46:11;2.95;;;1.80;;
35917;SDS011;22011;59.912;30.300;2023-08-24T11:48:38;1.65;;;1.55;;
35917;SDS011;22011;59.912;30.300;2023-08-24T11:51:09;7.20;;;2.13;;
35917;SDS011;22011;59.912;30.300;2023-08-24T11:53:38;5.80;;;2.45;;
35917;SDS011;22011;59.912;30.300;2023-08-24T11:56:07;4.40;;;1.75;;
35917;SDS011;22011;59.912;30.300;2023-08-24T11:58:37;3.07;;;1.90;;
35917;SDS011;22011;59.912;30.300;2023-08-24T12:01:05;3.05;;;1.77;;
35917;SDS011;22011;59.912;30.300;2023-08-24T12:03:34;5.82;;;2.03;;
35917;SDS011;22011;59.912;30.300;2023-08-24T12:06:06;3.63;;;2.17;;
35917;SDS011;22011;59.912;30.300;2023-08-24T12:08:39;6.07;;;2.25;;
35917;SDS011;22011;59.912;30.300;2023-08-24T12:11:11;7.07;;;2.08;;
35917;SDS011;22011;59.912;30.300;2023-08-24T12:13:43;12.35;;;1.90;;
35917;SDS011;22011;59.912;30.300;2023-08-24T12:16:12;6.47;;;2.03;;
35917;SDS011;22011;59.912;30.300;2023-08-24T12:18:49;6.28;;;2.05;;
35917;SDS011;22011;59.912;30.300;2023-08-24T12:21:19;4.18;;;1.95;;
35917;SDS011;22011;59.912;30.300;2023-08-24T12:23:56;2.90;;;1.80;;
35917;SDS011;22011;59.912;30.300;2023-08-24T12:26:25;4.35;;;1.73;;
35917;SDS011;22011;59.912;30.300;2023-08-24T12:28:54;2.78;;;1.35;;
35917;SDS011;22011;59.912;30.300;2023-08-24T12:31:26;5.95;;;1.52;;
35917;SDS011;22011;59.912;30.300;2023-08-24T12:33:58;6.03;;;1.92;;
35917;SDS011;22011;59.912;30.300;2023-08-24T12:36:29;2.50;;;1.70;;
35917;SDS011;22011;59.912;30.300;2023-08-24T12:38:57;5.70;;;2.00;;
35917;SDS011;22011;59.912;30.300;2023-08-24T12:41:25;14.18;;;2.30;;
35917;SDS011;22011;59.912;30.300;2023-08-24T12:43:52;4.22;;;1.60;;
35917;SDS011;22011;59.912;30.300;2023-08-24T12:46:20;3.35;;;1.88;;
35917;SDS011;22011;59.912;30.300;2023-08-24T12:48:48;7.28;;;2.67;;
35917;SDS011;22011;59.912;30.300;2023-08-24T12:51:16;11.27;;;1.70;;
35917;SDS011;22011;59.912;30.300;2023-08-24T12:53:45;7.07;;;2.15;;
35917;SDS011;22011;59.912;30.300;2023-08-24T12:56:12;6.85;;;1.83;;
35917;SDS011;22011;59.912;30.300;2023-08-24T12:58:40;7.97;;;2.50;;
35917;SDS011;22011;59.912;30.300;2023-08-24T13:01:07;10.85;;;3.08;;
35917;SDS011;22011;59.912;30.300;2023-08-24T13:03:35;6.80;;;3.05;;
35917;SDS011;22011;59.912;30.300;2023-08-24T13:06:05;8.48;;;3.25;;
35917;SDS011;22011;59.912;30.300;2023-08-24T13:08:33;5.45;;;2.30;;
35917;SDS011;22011;59.912;30.300;2023-08-24T13:11:01;5.70;;;1.38;;
35917;SDS011;22011;59.912;30.300;2023-08-24T13:13:30;7.22;;;2.00;;
35917;SDS011;22011;59.912;30.300;2023-08-24T13:15:57;12.13;;;2.30;;
35917;SDS011;22011;59.912;30.300;2023-08-24T13:18:25;10.77;;;3.25;;
35917;SDS011;22011;59.912;30.300;2023-08-24T13:20:52;8.98;;;2.30;;
35917;SDS011;22011;59.912;30.300;2023-08-24T13:23:20;5.60;;;2.00;;
35917;SDS011;22011;59.912;30.300;2023-08-24T13:25:48;5.43;;;1.83;;
35917;SDS011;22011;59.912;30.300;2023-08-24T13:28:17;4.70;;;1.80;;
35917;SDS011;22011;59.912;30.300;2023-08-24T13:30:44;7.45;;;2.90;;
35917;SDS011;22011;59.912;30.300;2023-08-24T13:33:14;6.53;;;1.75;;
35917;SDS011;22011;59.912;30.300;2023-08-24T13:35:42;5.13;;;2.00;;
35917;SDS011;22011;59.912;30.300;2023-08-24T13:38:09;8.70;;;2.55;;
35917;SDS011;22011;59.912;30.300;2023-08-24T13:40:37;6.05;;;2.35;;
35917;SDS011;22011;59.912;30.300;2023-08-24T13:43:04;10.25;;;2.70;;
35917;SDS011;22011;59.912;30.300;2023-08-24T13:45:33;11.32;;;3.35;;
35917;SDS011;22011;59.912;30.300;2023-08-24T13:48:01;6.30;;;2.90;;
35917;SDS011;22011;59.912;30.300;2023-08-24T13:50:29;15.57;;;3.33;;
35917;SDS011;22011;59.912;30.300;2023-08-24T13:52:56;10.60;;;3.17;;
35917;SDS011;22011;59.912;30.300;2023-08-24T13:55:24;8.23;;;3.03;;
35917;SDS011;22011;59.912;30.300;2023-08-24T13:57:52;7.55;;;3.00;;
35917;SDS011;22011;59.912;30.300;2023-08-24T14:00:19;9.52;;;2.75;;
35917;SDS011;22011;59.912;30.300;2023-08-24T14:02:50;12.88;;;2.92;;
35917;SDS011;22011;59.912;30.300;2023-08-24T14:05:17;10.60;;;3.33;;
35917;SDS011;22011;59.912;30.300;2023-08-24T14:07:45;7.90;;;3.70;;
35917;SDS011;22011;59.912;30.300;2023-08-24T14:10:13;7.15;;;3.80;;
35917;SDS011;22011;59.912;30.300;2023-08-24T14:12:40;10.23;;;3.88;;
35917;SDS011;22011;59.912;30.300;2023-08-24T14:15:09;9.60;;;3.58;;
35917;SDS011;22011;59.912;30.300;2023-08-24T14:17:37;11.38;;;3.40;;
35917;SDS011;22011;59.912;30.300;2023-08-24T14:20:06;9.32;;;3.08;;
35917;SDS011;22011;59.912;30.300;2023-08-24T14:22:35;8.38;;;2.83;;
35917;SDS011;22011;59.912;30.300;2023-08-24T14:25:02;8.65;;;3.13;;
35917;SDS011;22011;59.912;30.300;2023-08-24T14:27:30;3.90;;;2.10;;
35917;SDS011;22011;59.912;30.300;2023-08-24T14:29:58;5.50;;;1.90;;
35917;SDS011;22011;59.912;30.300;2023-08-24T14:32:26;5.53;;;2.10;;
35917;SDS011;22011;59.912;30.300;2023-08-24T14:34:53;4.90;;;2.22;;
35917;SDS011;22011;59.912;30.300;2023-08-24T14:37:22;3.22;;;1.65;;
35917;SDS011;22011;59.912;30.300;2023-08-24T14:39:50;4.47;;;1.73;;
35917;SDS011;22011;59.912;30.300;2023-08-24T14:42:18;4.32;;;1.90;;
35917;SDS011;22011;59.912;30.300;2023-08-24T14:44:45;7.00;;;1.90;;
35917;SDS011;22011;59.912;30.300;2023-08-24T14:47:13;6.13;;;2.03;;
35917;SDS011;22011;59.912;30.300;2023-08-24T14:49:41;3.50;;;1.73;;